Time;durP1;ratioP1;P1;durP2;ratioP2;P2;SDS_P1;SDS_P2;PMS_P1;PMS_P2;Temp;Humidity;BMP_temperature;BMP_pressure;BME280_temperature;BME280_humidity;BME280_pressure;Samples;Min_cycle;Max_cycle;Signal;HPM_P1;HPM_P2
2021/12/28 00:01:26;;;;;;;21.13;16.17;;;;;;;;;;5089548;28;20054;-60
2021/12/28 00:03:52;;;;;;;21.42;15.50;;;;;;;;;;5088771;28;20078;-60
2021/12/28 00:06:19;;;;;;;20.77;16.27;;;;;;;;;;5089915;28;20178;-59
2021/12/28 00:08:45;;;;;;;19.77;16.27;;;;;;;;;;5091087;28;20482;-59
2021/12/28 00:11:12;;;;;;;21.35;15.95;;;;;;;;;;5093696;28;20119;-59
2021/12/28 00:13:39;;;;;;;21.20;16.90;;;;;;;;;;5093308;28;20697;-59
2021/12/28 00:18:32;;;;;;;24.02;18.25;;;;;;;;;;5093162;28;20497;-59
2021/12/28 00:20:59;;;;;;;28.10;18.50;;;;;;;;;;5092880;28;20040;-60
2021/12/28 00:23:31;;;;;;;24.58;18.60;;;;;;;;;;5093087;28;20040;-59
2021/12/28 00:25:57;;;;;;;23.48;17.45;;;;;;;;;;5093224;28;20124;-60
2021/12/28 00:28:23;;;;;;;24.00;18.52;;;;;;;;;;5092950;28;20127;-59
2021/12/28 00:30:50;;;;;;;25.38;18.98;;;;;;;;;;5091870;28;20067;-59
2021/12/28 00:33:17;;;;;;;23.75;18.33;;;;;;;;;;5093303;28;20044;-59
2021/12/28 00:35:43;;;;;;;23.92;17.15;;;;;;;;;;5093020;28;20046;-59
2021/12/28 00:38:14;;;;;;;23.73;17.98;;;;;;;;;;5092986;28;20040;-59
2021/12/28 00:40:40;;;;;;;22.45;16.88;;;;;;;;;;5092893;28;20048;-60
2021/12/28 00:43:07;;;;;;;25.75;17.90;;;;;;;;;;5092185;28;20047;-60
2021/12/28 00:45:33;;;;;;;27.02;17.75;;;;;;;;;;5092705;28;20043;-59
2021/12/28 00:47:59;;;;;;;27.88;18.52;;;;;;;;;;5092965;28;20035;-59
2021/12/28 00:50:27;;;;;;;25.42;17.92;;;;;;;;;;5092685;28;20048;-58
2021/12/28 00:52:55;;;;;;;26.65;18.33;;;;;;;;;;5091566;28;20043;-60
2021/12/28 00:55:21;;;;;;;26.45;18.08;;;;;;;;;;5092828;28;20115;-59
2021/12/28 00:57:47;;;;;;;25.90;18.38;;;;;;;;;;5091205;28;20028;-59
2021/12/28 01:00:15;;;;;;;26.65;18.33;;;;;;;;;;5091403;28;20039;-59
2021/12/28 01:02:41;;;;;;;25.67;17.67;;;;;;;;;;5092569;28;20043;-59
2021/12/28 01:05:08;;;;;;;27.38;17.98;;;;;;;;;;5092793;28;20363;-60
2021/12/28 01:07:34;;;;;;;26.85;18.63;;;;;;;;;;5092369;28;20078;-59
2021/12/28 01:10:00;;;;;;;33.65;20.52;;;;;;;;;;5089885;28;20036;-60
2021/12/28 01:12:27;;;;;;;29.83;18.55;;;;;;;;;;5092385;28;20502;-59
2021/12/28 01:14:53;;;;;;;27.80;18.88;;;;;;;;;;5092516;28;20367;-59
2021/12/28 01:17:19;;;;;;;29.80;18.55;;;;;;;;;;5092015;28;20139;-59
2021/12/28 01:19:45;;;;;;;33.72;18.90;;;;;;;;;;5091243;28;20078;-59
2021/12/28 01:22:11;;;;;;;30.48;19.25;;;;;;;;;;5092019;28;20040;-60
2021/12/28 01:24:37;;;;;;;30.38;19.08;;;;;;;;;;5092535;28;20549;-59
2021/12/28 01:27:03;;;;;;;28.83;18.90;;;;;;;;;;5092041;28;20028;-60
2021/12/28 01:29:29;;;;;;;32.40;18.58;;;;;;;;;;5091051;28;20044;-60
2021/12/28 01:31:55;;;;;;;33.15;19.38;;;;;;;;;;5091520;28;20040;-60
2021/12/28 01:34:21;;;;;;;34.88;20.10;;;;;;;;;;5092220;28;20043;-58
2021/12/28 01:36:47;;;;;;;30.30;19.30;;;;;;;;;;5091814;28;20032;-59
2021/12/28 01:39:13;;;;;;;33.25;19.73;;;;;;;;;;5092090;28;20085;-58
2021/12/28 01:41:40;;;;;;;32.95;19.90;;;;;;;;;;5092434;28;20379;-60
2021/12/28 01:44:07;;;;;;;34.00;20.20;;;;;;;;;;5091727;28;20505;-60
2021/12/28 01:46:34;;;;;;;34.55;20.23;;;;;;;;;;5091963;28;20071;-58
2021/12/28 01:49:01;;;;;;;37.70;20.33;;;;;;;;;;5091278;28;20051;-60
2021/12/28 01:51:27;;;;;;;38.97;19.95;;;;;;;;;;5091952;28;20044;-59
2021/12/28 01:53:55;;;;;;;42.72;20.63;;;;;;;;;;5091409;28;20478;-59
2021/12/28 01:56:34;;;;;;;35.72;20.00;;;;;;;;;;5091664;28;20032;-59
2021/12/28 01:59:00;;;;;;;37.53;21.20;;;;;;;;;;5091625;28;20512;-59
2021/12/28 02:01:26;;;;;;;41.00;21.55;;;;;;;;;;5091417;28;20032;-59
2021/12/28 02:03:52;;;;;;;38.53;20.13;;;;;;;;;;5091487;28;20032;-59
2021/12/28 02:06:19;;;;;;;38.15;20.85;;;;;;;;;;5089783;28;20405;-59
2021/12/28 02:08:45;;;;;;;33.55;19.67;;;;;;;;;;5091265;28;20123;-58
2021/12/28 02:11:12;;;;;;;33.75;20.23;;;;;;;;;;5090728;28;20039;-59
2021/12/28 02:13:38;;;;;;;47.42;20.23;;;;;;;;;;5091376;28;20048;-58
2021/12/28 02:16:04;;;;;;;32.92;19.65;;;;;;;;;;5090748;28;20048;-59
2021/12/28 02:18:32;;;;;;;35.95;19.70;;;;;;;;;;5090233;28;20044;-59
2021/12/28 02:20:59;;;;;;;36.38;20.10;;;;;;;;;;5090553;28;20866;-60
2021/12/28 02:23:25;;;;;;;37.22;20.52;;;;;;;;;;5089498;28;20505;-59
2021/12/28 02:25:52;;;;;;;40.63;20.60;;;;;;;;;;5090778;28;20032;-60
2021/12/28 02:28:18;;;;;;;33.00;20.08;;;;;;;;;;5090616;28;20402;-59
2021/12/28 02:30:49;;;;;;;33.40;19.92;;;;;;;;;;5090683;28;20040;-59
2021/12/28 02:33:15;;;;;;;43.88;19.48;;;;;;;;;;5089425;28;20043;-60
2021/12/28 02:35:41;;;;;;;33.38;19.50;;;;;;;;;;5090181;28;20048;-59
2021/12/28 02:38:09;;;;;;;37.00;19.00;;;;;;;;;;5089875;28;20035;-60
2021/12/28 02:40:35;;;;;;;37.83;18.15;;;;;;;;;;5089851;28;20044;-60
2021/12/28 02:43:02;;;;;;;36.15;17.67;;;;;;;;;;5088678;28;20109;-58
2021/12/28 02:45:33;;;;;;;38.75;19.38;;;;;;;;;;5089742;28;20047;-59
2021/12/28 02:47:59;;;;;;;36.97;17.48;;;;;;;;;;5089689;28;20110;-59
2021/12/28 02:50:27;;;;;;;30.08;17.35;;;;;;;;;;5090157;28;20040;-60
2021/12/28 02:52:54;;;;;;;29.27;17.48;;;;;;;;;;5089124;28;20032;-59
2021/12/28 02:55:22;;;;;;;32.67;17.95;;;;;;;;;;5088721;28;20123;-59
2021/12/28 02:57:52;;;;;;;38.70;18.60;;;;;;;;;;5076220;28;20035;-60
2021/12/28 03:00:32;;;;;;;38.97;18.65;;;;;;;;;;5085509;28;20040;-58
2021/12/28 03:02:58;;;;;;;33.60;17.45;;;;;;;;;;5087954;28;20036;-59
2021/12/28 03:05:25;;;;;;;34.78;17.73;;;;;;;;;;5089299;28;20075;-59
2021/12/28 03:07:51;;;;;;;29.20;18.08;;;;;;;;;;5089304;28;20036;-59
2021/12/28 03:10:17;;;;;;;34.80;17.63;;;;;;;;;;5089811;28;20379;-59
2021/12/28 03:12:43;;;;;;;38.45;17.35;;;;;;;;;;5087570;28;20362;-59
2021/12/28 03:15:09;;;;;;;32.85;16.23;;;;;;;;;;5086447;28;20206;-59
2021/12/28 03:17:35;;;;;;;28.33;15.82;;;;;;;;;;5089151;28;20926;-60
2021/12/28 03:20:01;;;;;;;29.80;15.25;;;;;;;;;;5088634;28;20398;-59
2021/12/28 03:22:27;;;;;;;32.83;16.92;;;;;;;;;;5089378;28;20494;-59
2021/12/28 03:24:53;;;;;;;29.15;15.30;;;;;;;;;;5088663;28;20046;-59
2021/12/28 03:27:19;;;;;;;33.30;16.08;;;;;;;;;;5088766;28;20127;-60
2021/12/28 03:29:45;;;;;;;34.55;16.52;;;;;;;;;;5088343;28;20469;-59
2021/12/28 03:32:11;;;;;;;28.25;16.08;;;;;;;;;;5089286;28;20124;-59
2021/12/28 03:34:37;;;;;;;35.47;16.90;;;;;;;;;;5086837;28;20145;-59
2021/12/28 03:37:03;;;;;;;29.90;16.38;;;;;;;;;;5089122;28;20175;-59
2021/12/28 03:39:29;;;;;;;28.75;13.60;;;;;;;;;;5090501;28;20040;-59
2021/12/28 03:41:55;;;;;;;31.00;14.93;;;;;;;;;;5087322;28;20592;-59
2021/12/28 03:44:21;;;;;;;31.48;16.48;;;;;;;;;;5085402;28;20093;-60
2021/12/28 03:46:47;;;;;;;27.15;15.80;;;;;;;;;;5092210;28;20055;-60
2021/12/28 03:49:13;;;;;;;28.95;14.88;;;;;;;;;;5093401;28;20087;-60
2021/12/28 03:51:39;;;;;;;29.50;14.88;;;;;;;;;;5092169;28;20044;-60
2021/12/28 03:54:05;;;;;;;28.63;15.00;;;;;;;;;;5091155;28;20417;-59
2021/12/28 03:56:31;;;;;;;28.58;15.10;;;;;;;;;;5092193;28;20061;-59
2021/12/28 03:58:57;;;;;;;33.97;16.08;;;;;;;;;;5091993;28;20482;-60
2021/12/28 04:01:24;;;;;;;31.02;15.68;;;;;;;;;;5092304;28;20039;-59
2021/12/28 04:03:50;;;;;;;25.30;15.15;;;;;;;;;;5090186;28;20040;-59
2021/12/28 04:06:19;;;;;;;24.00;14.95;;;;;;;;;;5092534;28;20482;-59
2021/12/28 04:08:45;;;;;;;27.15;16.13;;;;;;;;;;5091505;28;20123;-59
2021/12/28 04:13:48;;;;;;;27.45;15.55;;;;;;;;;;5089651;28;20571;-58
2021/12/28 04:16:14;;;;;;;22.77;15.85;;;;;;;;;;5091586;28;20398;-59
2021/12/28 04:18:41;;;;;;;26.55;15.88;;;;;;;;;;5092601;28;20040;-58
2021/12/28 04:21:07;;;;;;;24.33;15.80;;;;;;;;;;5092153;28;20043;-60
2021/12/28 04:23:33;;;;;;;28.88;16.63;;;;;;;;;;5090919;28;20047;-58
2021/12/28 04:25:59;;;;;;;26.70;15.50;;;;;;;;;;5091909;28;20126;-59
2021/12/28 04:28:25;;;;;;;24.50;15.50;;;;;;;;;;5092770;28;20116;-59
2021/12/28 04:30:52;;;;;;;27.80;16.77;;;;;;;;;;5092621;28;20032;-58
2021/12/28 04:33:18;;;;;;;25.17;15.45;;;;;;;;;;5090200;28;20054;-59
2021/12/28 04:35:44;;;;;;;25.77;14.98;;;;;;;;;;5092356;28;20040;-60
2021/12/28 04:38:10;;;;;;;23.90;14.13;;;;;;;;;;5090425;28;20036;-59
2021/12/28 04:40:36;;;;;;;26.50;13.98;;;;;;;;;;5091886;28;20036;-59
2021/12/28 04:43:02;;;;;;;23.25;13.40;;;;;;;;;;5091422;28;20032;-59
2021/12/28 04:45:29;;;;;;;24.20;13.63;;;;;;;;;;5092473;28;20043;-59
2021/12/28 04:47:55;;;;;;;25.70;13.40;;;;;;;;;;5091955;28;20491;-59
2021/12/28 04:50:21;;;;;;;24.75;12.50;;;;;;;;;;5091986;28;20036;-59
2021/12/28 04:52:47;;;;;;;21.67;12.68;;;;;;;;;;5090340;28;20067;-59
2021/12/28 04:55:15;;;;;;;20.67;12.52;;;;;;;;;;5091597;28;20039;-60
2021/12/28 04:57:42;;;;;;;19.52;12.05;;;;;;;;;;5090969;28;20504;-59
2021/12/28 05:00:15;;;;;;;23.13;12.15;;;;;;;;;;5091095;28;20069;-59
2021/12/28 05:02:41;;;;;;;20.23;11.90;;;;;;;;;;5088350;28;20043;-59
2021/12/28 05:05:08;;;;;;;22.30;12.38;;;;;;;;;;5086808;28;20036;-59
2021/12/28 05:07:34;;;;;;;24.33;12.30;;;;;;;;;;5082741;28;20437;-59
2021/12/28 05:10:00;;;;;;;20.50;11.13;;;;;;;;;;5090776;28;20033;-59
2021/12/28 05:12:27;;;;;;;28.27;11.27;;;;;;;;;;5089487;28;20036;-59
2021/12/28 05:14:53;;;;;;;19.25;11.50;;;;;;;;;;5090382;28;20554;-59
2021/12/28 05:17:19;;;;;;;18.75;10.60;;;;;;;;;;5090230;28;20495;-58
2021/12/28 05:19:45;;;;;;;20.55;9.95;;;;;;;;;;5091023;28;20040;-59
2021/12/28 05:22:12;;;;;;;17.58;10.00;;;;;;;;;;5090109;28;20048;-59
2021/12/28 05:24:39;;;;;;;22.63;10.05;;;;;;;;;;5089478;28;20039;-60
2021/12/28 05:27:05;;;;;;;23.02;9.68;;;;;;;;;;5091915;28;20043;-60
2021/12/28 05:29:31;;;;;;;16.75;8.85;;;;;;;;;;5091185;28;20032;-60
2021/12/28 05:31:57;;;;;;;18.67;9.25;;;;;;;;;;5090249;28;20067;-59
2021/12/28 05:34:23;;;;;;;21.95;9.48;;;;;;;;;;5090548;28;20443;-59
2021/12/28 05:36:49;;;;;;;16.10;9.02;;;;;;;;;;5091471;28;20429;-60
2021/12/28 05:39:15;;;;;;;19.85;9.32;;;;;;;;;;5091298;28;20040;-59
2021/12/28 05:41:41;;;;;;;16.50;9.20;;;;;;;;;;5091224;28;20115;-59
2021/12/28 05:44:07;;;;;;;16.42;8.68;;;;;;;;;;5088829;28;20173;-59
2021/12/28 05:46:33;;;;;;;17.17;8.25;;;;;;;;;;5089801;28;20044;-59
2021/12/28 05:48:59;;;;;;;14.60;7.90;;;;;;;;;;5090321;28;20038;-60
2021/12/28 05:51:25;;;;;;;14.98;7.53;;;;;;;;;;5091198;28;20036;-58
2021/12/28 05:53:51;;;;;;;12.75;8.02;;;;;;;;;;5089979;28;20541;-60
2021/12/28 05:56:18;;;;;;;20.70;7.30;;;;;;;;;;5089410;28;20544;-60
2021/12/28 05:58:44;;;;;;;17.02;7.07;;;;;;;;;;5091473;28;20390;-58
2021/12/28 06:01:10;;;;;;;17.05;7.80;;;;;;;;;;5091567;28;20043;-59
2021/12/28 06:03:36;;;;;;;21.40;7.93;;;;;;;;;;5090741;28;20519;-60
2021/12/28 06:06:02;;;;;;;15.85;7.85;;;;;;;;;;5089819;28;20154;-59
2021/12/28 06:08:28;;;;;;;20.52;7.47;;;;;;;;;;5090288;28;20044;-59
2021/12/28 06:10:55;;;;;;;15.80;6.80;;;;;;;;;;5090553;28;20501;-59
2021/12/28 06:13:21;;;;;;;16.80;7.30;;;;;;;;;;5088598;28;20173;-58
2021/12/28 06:15:47;;;;;;;15.35;7.38;;;;;;;;;;5088234;28;20040;-59
2021/12/28 06:18:13;;;;;;;13.23;6.63;;;;;;;;;;5088799;28;20573;-60
2021/12/28 06:20:39;;;;;;;16.15;7.22;;;;;;;;;;5088459;28;20417;-59
2021/12/28 06:23:05;;;;;;;16.40;7.32;;;;;;;;;;5089857;28;20388;-59
2021/12/28 06:25:33;;;;;;;18.02;7.20;;;;;;;;;;5090000;28;20046;-59
2021/12/28 06:27:59;;;;;;;14.98;6.85;;;;;;;;;;5088482;28;20063;-59
2021/12/28 06:30:25;;;;;;;20.45;7.05;;;;;;;;;;5088654;28;20048;-59
2021/12/28 06:32:51;;;;;;;15.95;6.72;;;;;;;;;;5071815;28;20047;-59
2021/12/28 06:35:17;;;;;;;15.90;6.97;;;;;;;;;;5088773;28;20397;-59
2021/12/28 06:37:43;;;;;;;16.40;6.72;;;;;;;;;;5089231;28;20127;-59
2021/12/28 06:40:11;;;;;;;17.23;7.32;;;;;;;;;;5088554;28;20044;-59
2021/12/28 06:42:37;;;;;;;15.50;6.70;;;;;;;;;;5090698;28;20051;-59
2021/12/28 06:45:04;;;;;;;17.92;6.50;;;;;;;;;;5089786;28;20040;-60
2021/12/28 06:47:30;;;;;;;16.13;6.07;;;;;;;;;;5090801;28;20043;-59
2021/12/28 06:49:56;;;;;;;15.48;6.50;;;;;;;;;;5088163;28;20514;-59
2021/12/28 06:52:22;;;;;;;16.10;6.32;;;;;;;;;;5089084;28;20039;-59
2021/12/28 06:54:48;;;;;;;14.23;5.43;;;;;;;;;;5086881;28;20084;-60
2021/12/28 06:57:14;;;;;;;15.07;5.93;;;;;;;;;;5082552;28;20082;-58
2021/12/28 06:59:45;;;;;;;15.80;7.07;;;;;;;;;;5089358;28;20074;-59
2021/12/28 07:02:12;;;;;;;12.35;5.65;;;;;;;;;;5089472;28;20048;-59
2021/12/28 07:04:39;;;;;;;15.45;5.97;;;;;;;;;;5088922;28;20056;-61
2021/12/28 07:07:05;;;;;;;16.95;5.97;;;;;;;;;;5087622;28;20281;-59
2021/12/28 07:09:31;;;;;;;16.25;6.95;;;;;;;;;;5086878;28;20113;-60
2021/12/28 07:11:57;;;;;;;12.73;5.35;;;;;;;;;;5086032;28;20043;-61
2021/12/28 07:14:23;;;;;;;15.93;5.82;;;;;;;;;;5086047;28;20067;-60
2021/12/28 07:16:49;;;;;;;19.23;5.85;;;;;;;;;;5086223;28;20523;-61
2021/12/28 07:19:15;;;;;;;13.55;4.95;;;;;;;;;;5085751;28;20063;-60
2021/12/28 07:21:42;;;;;;;15.90;5.90;;;;;;;;;;5084610;28;20085;-60
2021/12/28 07:24:09;;;;;;;16.45;5.53;;;;;;;;;;5083747;28;20044;-60
2021/12/28 07:26:36;;;;;;;19.05;5.82;;;;;;;;;;5084859;28;20060;-59
2021/12/28 07:29:02;;;;;;;13.07;5.60;;;;;;;;;;5087426;28;20036;-60
2021/12/28 07:31:28;;;;;;;14.45;5.53;;;;;;;;;;5086955;28;20123;-59
2021/12/28 07:33:55;;;;;;;15.90;5.70;;;;;;;;;;5086767;28;20119;-60
2021/12/28 07:36:21;;;;;;;15.27;5.03;;;;;;;;;;5087305;28;20032;-60
2021/12/28 07:38:47;;;;;;;14.07;5.63;;;;;;;;;;5087771;28;21062;-61
2021/12/28 07:41:13;;;;;;;13.65;5.45;;;;;;;;;;5087184;28;20088;-59
2021/12/28 07:43:39;;;;;;;18.67;5.43;;;;;;;;;;5089298;28;20036;-60
2021/12/28 07:46:05;;;;;;;13.65;4.97;;;;;;;;;;5089624;28;20036;-59
2021/12/28 07:48:32;;;;;;;16.45;5.70;;;;;;;;;;5089215;28;20032;-60
2021/12/28 07:50:58;;;;;;;15.98;5.45;;;;;;;;;;5089059;28;20121;-59
2021/12/28 07:53:24;;;;;;;18.83;6.05;;;;;;;;;;5089293;28;20055;-58
2021/12/28 07:55:50;;;;;;;19.27;5.15;;;;;;;;;;5089768;28;20039;-59
2021/12/28 07:58:16;;;;;;;12.05;6.05;;;;;;;;;;5088712;28;20036;-59
2021/12/28 08:00:43;;;;;;;21.85;6.15;;;;;;;;;;5085332;28;20047;-59
2021/12/28 08:03:09;;;;;;;18.15;6.88;;;;;;;;;;5086005;28;20153;-59
2021/12/28 08:05:36;;;;;;;18.67;7.38;;;;;;;;;;5085716;28;20063;-60
2021/12/28 08:08:02;;;;;;;19.15;7.30;;;;;;;;;;5088214;28;20104;-60
2021/12/28 08:10:28;;;;;;;16.70;7.80;;;;;;;;;;5120160;28;20036;-61
2021/12/28 08:12:56;;;;;;;19.63;6.97;;;;;;;;;;5087147;28;20040;-60
2021/12/28 08:15:23;;;;;;;18.20;6.50;;;;;;;;;;5087458;28;20082;-61
2021/12/28 08:17:49;;;;;;;19.27;6.00;;;;;;;;;;5086969;28;20048;-61
2021/12/28 08:20:16;;;;;;;14.80;5.32;;;;;;;;;;5086287;28;20039;-60
2021/12/28 08:22:43;;;;;;;18.92;5.13;;;;;;;;;;5089214;28;20031;-61
2021/12/28 08:25:11;;;;;;;17.65;4.43;;;;;;;;;;5090474;28;21165;-61
2021/12/28 08:27:38;;;;;;;13.68;4.60;;;;;;;;;;5087195;28;20047;-61
2021/12/28 08:30:05;;;;;;;19.88;5.10;;;;;;;;;;5091014;28;20044;-60
2021/12/28 08:32:31;;;;;;;17.52;5.03;;;;;;;;;;5093177;28;20039;-60
2021/12/28 08:34:57;;;;;;;12.63;4.30;;;;;;;;;;5092754;28;20035;-60
2021/12/28 08:37:23;;;;;;;15.90;4.80;;;;;;;;;;5093072;28;20482;-60
2021/12/28 08:39:49;;;;;;;16.38;4.38;;;;;;;;;;5093475;28;20043;-59
2021/12/28 08:42:15;;;;;;;21.52;4.70;;;;;;;;;;5093142;28;20066;-59
2021/12/28 08:44:41;;;;;;;14.55;4.65;;;;;;;;;;5090824;28;20040;-60
2021/12/28 08:47:07;;;;;;;16.88;4.68;;;;;;;;;;5092902;28;20040;-60
2021/12/28 08:49:33;;;;;;;12.63;4.72;;;;;;;;;;5092737;28;20551;-59
2021/12/28 08:51:59;;;;;;;16.92;5.32;;;;;;;;;;5092793;28;20036;-59
2021/12/28 08:54:26;;;;;;;14.18;4.50;;;;;;;;;;5092463;28;20032;-60
2021/12/28 08:56:52;;;;;;;17.27;4.68;;;;;;;;;;5092810;28;20039;-61
2021/12/28 08:59:18;;;;;;;15.15;5.05;;;;;;;;;;5092643;28;20119;-60
2021/12/28 09:01:45;;;;;;;19.42;5.88;;;;;;;;;;5092708;28;20036;-59
2021/12/28 09:04:11;;;;;;;20.42;5.22;;;;;;;;;;5092336;28;20097;-58
2021/12/28 09:06:37;;;;;;;23.83;7.18;;;;;;;;;;5092175;28;20036;-60
2021/12/28 09:09:03;;;;;;;15.65;5.43;;;;;;;;;;5092474;28;20047;-60
2021/12/28 09:11:29;;;;;;;14.18;4.13;;;;;;;;;;5093020;28;20043;-61
2021/12/28 09:13:55;;;;;;;13.70;4.65;;;;;;;;;;5092393;28;20479;-59
2021/12/28 09:16:22;;;;;;;15.25;5.35;;;;;;;;;;5091990;28;20048;-59
2021/12/28 09:18:49;;;;;;;14.48;5.03;;;;;;;;;;5092585;28;20115;-59
2021/12/28 09:21:15;;;;;;;18.35;5.70;;;;;;;;;;5092151;28;20123;-58
2021/12/28 09:23:41;;;;;;;15.00;6.13;;;;;;;;;;5092342;28;20043;-60
2021/12/28 09:26:07;;;;;;;15.82;5.57;;;;;;;;;;5092220;28;20488;-59
2021/12/28 09:28:33;;;;;;;14.07;5.75;;;;;;;;;;5092202;28;20040;-58
2021/12/28 09:31:00;;;;;;;17.90;5.97;;;;;;;;;;5090464;28;20047;-60
2021/12/28 09:33:26;;;;;;;16.85;6.60;;;;;;;;;;5090872;28;20652;-59
2021/12/28 09:35:52;;;;;;;19.35;6.35;;;;;;;;;;5092211;28;20032;-59
2021/12/28 09:38:19;;;;;;;19.10;5.63;;;;;;;;;;5091685;28;20063;-60
2021/12/28 09:40:46;;;;;;;19.02;5.93;;;;;;;;;;5092068;28;20512;-61
2021/12/28 09:43:12;;;;;;;11.25;5.22;;;;;;;;;;5082654;28;20043;-59
2021/12/28 09:45:38;;;;;;;19.50;6.05;;;;;;;;;;5090650;28;20038;-59
2021/12/28 09:48:05;;;;;;;20.67;6.75;;;;;;;;;;5088096;28;20036;-59
2021/12/28 09:50:31;;;;;;;16.95;6.10;;;;;;;;;;5088561;28;20072;-59
2021/12/28 09:53:00;;;;;;;15.02;5.68;;;;;;;;;;5088313;28;20044;-60
2021/12/28 09:55:26;;;;;;;18.20;6.88;;;;;;;;;;5088957;28;20036;-61
2021/12/28 09:57:52;;;;;;;16.98;6.57;;;;;;;;;;5089763;28;20505;-60
2021/12/28 10:00:19;;;;;;;15.10;5.75;;;;;;;;;;5089133;28;20044;-60
2021/12/28 10:02:45;;;;;;;13.60;5.60;;;;;;;;;;5088747;28;20040;-60
2021/12/28 10:05:14;;;;;;;12.00;6.30;;;;;;;;;;5089635;28;20048;-60
2021/12/28 10:07:44;;;;;;;16.92;6.95;;;;;;;;;;5088961;28;20557;-59
2021/12/28 10:10:11;;;;;;;15.70;6.03;;;;;;;;;;5087552;28;20097;-58
2021/12/28 10:12:38;;;;;;;12.18;6.38;;;;;;;;;;5086838;28;20490;-60
2021/12/28 10:15:08;;;;;;;13.88;6.20;;;;;;;;;;5084006;28;20418;-60
2021/12/28 10:17:35;;;;;;;11.50;5.60;;;;;;;;;;5089720;28;20052;-61
2021/12/28 10:20:02;;;;;;;10.18;5.72;;;;;;;;;;5090991;28;20048;-60
2021/12/28 10:22:28;;;;;;;13.20;6.30;;;;;;;;;;5090514;28;20068;-62
2021/12/28 10:25:18;;;;;;;14.00;6.00;;;8.00;99.90;;;;;;5091082;28;20113;-59
2021/12/28 10:27:49;;;;;;;9.07;5.47;;;;;;;;;;5088140;28;20048;-59
2021/12/28 10:30:17;;;;;;;9.38;6.43;;;;;;;;;;5090043;28;20043;-61
2021/12/28 10:32:45;;;;;;;14.02;6.30;;;;;;;;;;5090490;28;20036;-59
2021/12/28 10:35:13;;;;;;;11.75;5.45;;;;;;;;;;5092869;28;20043;-61
2021/12/28 10:37:40;;;;;;;11.63;5.75;;;;;;;;;;5089504;28;20142;-61
2021/12/28 10:40:08;;;;;;;10.85;6.10;;;;;;;;;;5090429;28;20127;-61
2021/12/28 10:42:43;;;;;;;12.13;6.93;;;;;;;;;;5089198;28;20040;-59
2021/12/28 10:45:20;;;;;;;15.65;6.47;;;;;;;;;;5089271;28;20040;-61
2021/12/28 10:47:47;;;;;;;11.02;5.93;;;;;;;;;;5091184;28;20127;-60
2021/12/28 10:50:24;;;;;;;12.90;6.50;;;;;;;;;;5091626;28;20466;-61
2021/12/28 10:52:59;;;;;;;11.32;6.50;;;;;;;;;;5090615;28;20402;-61
2021/12/28 10:55:26;;;;;;;11.82;5.75;;;;;;;;;;5091120;28;20461;-60
2021/12/28 10:57:52;;;;;;;11.95;6.40;;;;;;;;;;5090095;28;20433;-59
2021/12/28 11:00:25;;;;;;;9.35;6.25;;;;;;;;;;5091305;28;20569;-60
2021/12/28 11:02:51;;;;;;;;;;;;;;;;;;5091571;28;20124;-60
2021/12/28 11:05:30;;;;;;;10.43;7.43;;;;;;;;;;5091103;28;20354;-59
2021/12/28 11:07:57;;;;;;;9.30;5.55;;;;;;;;;;5090823;28;20044;-60
2021/12/28 11:10:27;;;;;;;12.68;6.50;;;;;;;;;;5091121;28;20056;-59
2021/12/28 11:12:54;;;;;;;10.35;5.53;;;;;;;;;;5091195;28;20074;-61
2021/12/28 11:15:21;;;;;;;10.27;5.80;;;;;;;;;;5091092;28;20036;-61
2021/12/28 11:17:47;;;;;;;8.85;5.50;;;;;;;;;;5090821;28;20511;-61
2021/12/28 11:20:13;;;;;;;8.98;5.00;;;;;;;;;;5090483;28;20036;-60
2021/12/28 11:22:39;;;;;;;9.98;5.25;;;;;;;;;;5091097;28;20536;-60
2021/12/28 11:25:24;;;;;;;9.23;5.05;;;;;;;;;;5090829;28;20047;-59
2021/12/28 11:28:10;;;;;;;8.63;5.00;;;;;;;;;;5090881;28;20485;-61
2021/12/28 11:30:36;;;;;;;7.65;4.60;;;;;;;;;;5090594;28;20051;-60
2021/12/28 11:33:08;;;;;;;8.75;4.78;;;;;;;;;;5090937;28;20514;-60
2021/12/28 11:35:35;;;;;;;5.50;4.18;;;;;;;;;;5089605;28;20044;-61
2021/12/28 11:38:02;;;;;;;5.63;4.10;;;;;;;;;;5090505;28;20078;-61
2021/12/28 11:40:28;;;;;;;5.88;4.45;;;;;;;;;;5072889;28;20578;-61
2021/12/28 11:42:54;;;;;;;7.70;4.38;;;;;;;;;;5090903;28;20047;-59
2021/12/28 11:45:21;;;;;;;7.55;4.18;;;;;;;;;;5090246;28;20068;-60
2021/12/28 11:47:47;;;;;;;4.82;3.60;;;;;;;;;;5090735;28;20394;-60
2021/12/28 11:50:13;;;;;;;5.90;3.60;;;;;;;;;;5090498;28;20510;-60
2021/12/28 11:52:39;;;;;;;5.47;4.00;;;;;;;;;;5090520;28;20043;-60
2021/12/28 11:55:09;;;;;;;5.97;3.72;;;;;;;;;;5090399;28;20036;-60
2021/12/28 11:57:34;;;;;;;4.53;3.72;;;;;;;;;;5090567;28;20032;-59
2021/12/28 12:00:09;;;;;;;5.50;3.70;;;;;;;;;;5090198;28;20394;-60
2021/12/28 12:02:41;;;;;;;5.10;3.45;;;;;;;;;;5090633;28;20075;-59
2021/12/28 12:05:15;;;;;;;5.60;3.50;;;;;;;;;;5091883;28;20184;-62
2021/12/28 12:07:41;;;;;;;4.07;3.63;;;;;;;;;;5094549;28;20184;-60
2021/12/28 12:10:09;;;;;;;5.70;3.75;;;;;;;;;;5094015;28;20048;-60
2021/12/28 12:12:43;;;;;;;5.88;3.55;;;;;;;;;;5094182;28;20039;-59
2021/12/28 12:15:11;;;;;;;7.13;3.70;;;;;;;;;;5094144;28;20032;-61
2021/12/28 12:17:39;;;;;;;5.15;4.03;;;;;;;;;;5092984;28;20040;-60
2021/12/28 12:20:18;;;;;;;4.45;3.33;;;;;;;;;;5093915;28;20069;-58
2021/12/28 12:22:49;;;;;;;6.03;3.70;;;;;;;;;;5094214;28;20044;-62
2021/12/28 12:25:18;;;;;;;5.28;3.50;;;;;;;;;;5093866;28;20047;-61
2021/12/28 12:27:54;;;;;;;5.50;3.60;;;;;;;;;;5094191;28;20040;-61
2021/12/28 12:30:20;;;;;;;4.95;3.58;;;;;;;;;;5093687;28;20119;-60
2021/12/28 12:32:58;;;;;;;5.25;3.60;;;;;;;;;;5093990;28;20072;-60
2021/12/28 12:35:35;;;;;;;5.50;3.38;;;;;;;;;;5093572;28;20043;-60
2021/12/28 12:38:04;;;;;;;5.28;3.28;;;;;;;;;;5094002;28;20043;-60
2021/12/28 12:40:49;;;;;;;5.35;3.53;;;;;;;;;;5093801;28;20512;-60
2021/12/28 12:43:15;;;;;;;8.40;3.60;;;;;;;;;;5093537;28;20490;-60
2021/12/28 12:45:57;;;;;;;4.43;3.17;;;;;;;;;;5093551;28;20123;-59
2021/12/28 12:48:35;;;;;;;5.15;3.65;;;;;;;;;;5093802;28;20040;-60
2021/12/28 12:51:26;;;;;;;3.17;2.85;;;;;;;;;;5092227;28;20051;-61
2021/12/28 12:54:02;;;;;;;5.25;3.13;;;;;;;;;;5092334;28;20044;-59
2021/12/28 12:56:40;;;;;;;4.43;3.30;;;;;;;;;;5093547;28;20050;-61
2021/12/28 12:59:20;;;;;;;3.38;2.70;;;;;;;;;;5093424;28;20036;-59
2021/12/28 13:01:46;;;;;;;3.45;2.53;;;;;;;;;;5093377;28;20114;-60
2021/12/28 13:04:25;;;;;;;4.97;2.90;;;;;;;;;;5093287;28;20115;-60
2021/12/28 13:07:17;;;;;;;3.53;3.05;;;9.10;99.90;;;;;;5093484;28;20036;-59
2021/12/28 13:09:45;;;;;;;4.28;2.83;;;;;;;;;;5093028;28;20051;-60
2021/12/28 13:12:13;;;;;;;3.13;2.75;;;;;;;;;;5093286;28;20032;-60
2021/12/28 13:14:39;;;;;;;3.20;2.90;;;;;;;;;;5092659;28;20440;-60
2021/12/28 13:17:14;;;;;;;4.05;2.85;;;;;;;;;;5091941;28;20136;-59
2021/12/28 13:19:55;;;;;;;6.20;3.10;;;;;;;;;;5093015;28;20494;-60
2021/12/28 13:22:21;;;;;;;3.42;3.10;;;;;;;;;;5092831;28;20406;-59
2021/12/28 13:24:47;;;;;;;3.50;3.15;;;;;;;;;;5092995;28;20506;-60
2021/12/28 13:27:16;;;;;;;3.53;3.20;;;;;;;;;;5092902;28;20032;-61
2021/12/28 13:29:42;;;;;;;4.78;3.40;;;;;;;;;;5091176;28;20051;-61
2021/12/28 13:32:24;;;;;;;4.70;3.60;;;;;;;;;;5092806;28;20036;-59
2021/12/28 13:35:08;;;;;;;5.25;3.65;;;;;;;;;;5092936;28;20501;-61
2021/12/28 13:37:34;;;;;;;4.00;3.60;;;;;;;;;;5092530;28;20371;-59
2021/12/28 13:40:02;;;;;;;6.75;4.20;;;;;;;;;;5092699;28;20146;-60
2021/12/28 13:42:28;;;;;;;7.22;5.65;;;;;;;;;;5092259;28;20044;-61
2021/12/28 13:44:54;;;;;;;4.40;3.65;;;;;;;;;;5092551;28;20079;-60
2021/12/28 13:47:21;;;;;;;4.82;3.42;;;;;;;;;;5092372;28;20044;-60
2021/12/28 13:50:07;;;;;;;6.30;3.75;;;9.10;99.90;;;;;;5092227;28;20040;-60
2021/12/28 13:52:43;;;;;;;5.32;3.90;;;;;;;;;;5092440;28;20124;-59
2021/12/28 13:55:10;;;;;;;5.03;3.80;;;;;;;;;;5092667;28;20101;-58
2021/12/28 13:57:36;;;;;;;5.57;4.10;;;;;;;;;;5092214;28;20510;-59
2021/12/28 14:00:04;;;;;;;5.80;4.22;;;;;;;;;;5092422;28;20406;-60
2021/12/28 14:02:30;;;;;;;4.57;4.15;;;;;;;;;;5092068;28;20388;-59
2021/12/28 14:04:57;;;;;;;2.25;2.05;;;;;;;;;;5092064;28;20277;-60
2021/12/28 14:07:23;;;;;;;4.18;1.38;;;;;;;;;;5092096;28;20044;-59
2021/12/28 14:09:50;;;;;;;4.68;1.00;;;;;;;;;;5091787;28;20371;-60
2021/12/28 14:12:16;;;;;;;2.00;0.75;;;;;;;;;;5092100;28;20097;-60
2021/12/28 14:14:49;;;;;;;2.13;1.00;;;;;;;;;;5091712;28;20436;-60
2021/12/28 14:17:17;;;;;;;2.95;0.82;;;;;;;;;;5091713;28;20441;-60
2021/12/28 14:19:53;;;;;;;5.72;1.00;;;;;;;;;;5091442;28;20048;-61
2021/12/28 14:22:20;;;;;;;2.05;0.65;;;;;;;;;;5091805;28;20067;-60
2021/12/28 14:24:51;;;;;;;7.00;1.00;;;;;;;;;;5091432;28;20036;-59
2021/12/28 14:27:25;;;;;;;4.80;1.10;;;;;;;;;;5091811;28;20040;-60
2021/12/28 14:30:10;;;;;;;4.60;1.60;;;;;;;;;;5091228;28;20102;-60
2021/12/28 14:32:40;;;;;;;5.82;1.10;;;;;;;;;;5090536;28;20124;-58
2021/12/28 14:35:11;;;;;;;6.28;1.30;;;;;;;;;;5091952;28;20028;-60
2021/12/28 14:37:38;;;;;;;6.68;1.20;;;;;;;;;;5091597;28;20032;-60